sensor_id;sensor_type;location;lat;lon;timestamp;P1;durP1;ratioP1;P2;durP2;ratioP2
62353;SDS011;48391;49.184;2.418;2022-07-29T06:28:57;8.15;;;2.90;;
62353;SDS011;48391;49.184;2.418;2022-07-29T06:31:23;8.73;;;3.47;;
62353;SDS011;48391;49.184;2.418;2022-07-29T06:33:49;5.45;;;2.88;;
62353;SDS011;48391;49.184;2.418;2022-07-29T06:36:15;3.90;;;2.85;;
62353;SDS011;48391;49.184;2.418;2022-07-29T06:38:41;10.10;;;3.50;;
62353;SDS011;48391;49.184;2.418;2022-07-29T06:41:08;4.82;;;3.00;;
62353;SDS011;48391;49.184;2.418;2022-07-29T06:43:38;5.22;;;2.35;;
62353;SDS011;48391;49.184;2.418;2022-07-29T06:46:09;4.47;;;2.13;;
62353;SDS011;48391;49.184;2.418;2022-07-29T06:48:39;3.03;;;1.95;;
62353;SDS011;48391;49.184;2.418;2022-07-29T06:51:07;3.28;;;1.98;;
62353;SDS011;48391;49.184;2.418;2022-07-29T06:53:33;3.00;;;1.50;;
62353;SDS011;48391;49.184;2.418;2022-07-29T06:55:59;5.97;;;2.38;;
62353;SDS011;48391;49.184;2.418;2022-07-29T06:58:26;3.33;;;2.35;;
62353;SDS011;48391;49.184;2.418;2022-07-29T07:00:53;14.32;;;2.25;;
62353;SDS011;48391;49.184;2.418;2022-07-29T07:03:21;5.20;;;3.00;;
62353;SDS011;48391;49.184;2.418;2022-07-29T07:05:48;5.05;;;1.98;;
62353;SDS011;48391;49.184;2.418;2022-07-29T07:08:14;5.40;;;1.90;;
62353;SDS011;48391;49.184;2.418;2022-07-29T07:10:41;5.20;;;1.90;;
62353;SDS011;48391;49.184;2.418;2022-07-29T07:13:07;3.17;;;1.85;;
62353;SDS011;48391;49.184;2.418;2022-07-29T07:15:34;11.35;;;1.95;;
62353;SDS011;48391;49.184;2.418;2022-07-29T07:18:01;6.25;;;1.98;;
62353;SDS011;48391;49.184;2.418;2022-07-29T07:20:27;2.88;;;1.58;;
62353;SDS011;48391;49.184;2.418;2022-07-29T07:22:53;5.10;;;2.40;;
62353;SDS011;48391;49.184;2.418;2022-07-29T07:25:19;3.83;;;2.47;;
62353;SDS011;48391;49.184;2.418;2022-07-29T07:27:46;4.10;;;2.00;;
62353;SDS011;48391;49.184;2.418;2022-07-29T07:30:12;4.63;;;1.85;;
62353;SDS011;48391;49.184;2.418;2022-07-29T07:32:38;5.72;;;2.10;;
62353;SDS011;48391;49.184;2.418;2022-07-29T07:35:06;6.35;;;2.50;;
62353;SDS011;48391;49.184;2.418;2022-07-29T07:37:32;3.03;;;2.15;;
62353;SDS011;48391;49.184;2.418;2022-07-29T07:39:58;3.97;;;1.92;;
62353;SDS011;48391;49.184;2.418;2022-07-29T07:42:24;5.10;;;2.13;;
62353;SDS011;48391;49.184;2.418;2022-07-29T07:44:50;6.25;;;1.98;;
62353;SDS011;48391;49.184;2.418;2022-07-29T07:47:17;5.88;;;1.77;;
62353;SDS011;48391;49.184;2.418;2022-07-29T07:49:47;5.57;;;2.40;;
62353;SDS011;48391;49.184;2.418;2022-07-29T07:52:14;4.47;;;2.30;;
62353;SDS011;48391;49.184;2.418;2022-07-29T07:54:40;6.47;;;1.67;;
62353;SDS011;48391;49.184;2.418;2022-07-29T07:57:06;2.65;;;1.73;;
62353;SDS011;48391;49.184;2.418;2022-07-29T07:59:32;4.75;;;1.90;;
62353;SDS011;48391;49.184;2.418;2022-07-29T08:01:58;2.03;;;1.67;;
62353;SDS011;48391;49.184;2.418;2022-07-29T08:04:25;4.45;;;2.13;;
62353;SDS011;48391;49.184;2.418;2022-07-29T08:06:51;7.32;;;2.22;;
62353;SDS011;48391;49.184;2.418;2022-07-29T08:09:19;2.35;;;1.63;;
62353;SDS011;48391;49.184;2.418;2022-07-29T08:11:45;10.38;;;2.58;;
62353;SDS011;48391;49.184;2.418;2022-07-29T08:14:11;3.58;;;1.50;;
62353;SDS011;48391;49.184;2.418;2022-07-29T08:16:38;5.00;;;1.55;;
62353;SDS011;48391;49.184;2.418;2022-07-29T08:19:05;3.63;;;1.52;;
62353;SDS011;48391;49.184;2.418;2022-07-29T08:21:31;2.35;;;1.77;;
62353;SDS011;48391;49.184;2.418;2022-07-29T08:23:57;4.60;;;1.40;;
62353;SDS011;48391;49.184;2.418;2022-07-29T08:26:43;3.25;;;1.65;;
62353;SDS011;48391;49.184;2.418;2022-07-29T08:29:09;2.67;;;1.65;;
62353;SDS011;48391;49.184;2.418;2022-07-29T08:31:36;5.70;;;1.88;;
62353;SDS011;48391;49.184;2.418;2022-07-29T08:34:02;7.20;;;2.10;;
62353;SDS011;48391;49.184;2.418;2022-07-29T08:36:28;6.18;;;2.40;;
62353;SDS011;48391;49.184;2.418;2022-07-29T08:38:55;13.00;;;2.17;;
62353;SDS011;48391;49.184;2.418;2022-07-29T08:41:22;7.07;;;1.27;;
62353;SDS011;48391;49.184;2.418;2022-07-29T08:43:48;4.30;;;1.52;;
62353;SDS011;48391;49.184;2.418;2022-07-29T08:46:15;7.75;;;1.27;;
62353;SDS011;48391;49.184;2.418;2022-07-29T08:48:42;2.10;;;0.77;;
62353;SDS011;48391;49.184;2.418;2022-07-29T08:51:08;3.72;;;0.90;;
62353;SDS011;48391;49.184;2.418;2022-07-29T08:53:39;4.68;;;1.52;;
62353;SDS011;48391;49.184;2.418;2022-07-29T08:56:06;2.75;;;1.13;;
62353;SDS011;48391;49.184;2.418;2022-07-29T08:58:32;3.17;;;1.00;;
62353;SDS011;48391;49.184;2.418;2022-07-29T09:00:59;2.92;;;0.73;;
62353;SDS011;48391;49.184;2.418;2022-07-29T09:03:31;4.18;;;1.60;;
62353;SDS011;48391;49.184;2.418;2022-07-29T09:05:58;3.10;;;1.17;;
62353;SDS011;48391;49.184;2.418;2022-07-29T09:08:24;6.90;;;1.48;;
62353;SDS011;48391;49.184;2.418;2022-07-29T09:10:50;1.77;;;0.70;;
62353;SDS011;48391;49.184;2.418;2022-07-29T09:13:17;2.25;;;1.00;;
62353;SDS011;48391;49.184;2.418;2022-07-29T09:15:43;3.83;;;1.00;;
62353;SDS011;48391;49.184;2.418;2022-07-29T09:18:09;0.88;;;0.60;;
62353;SDS011;48391;49.184;2.418;2022-07-29T09:20:36;4.50;;;0.68;;
62353;SDS011;48391;49.184;2.418;2022-07-29T09:23:22;0.82;;;0.43;;
62353;SDS011;48391;49.184;2.418;2022-07-29T09:25:48;2.20;;;0.70;;
62353;SDS011;48391;49.184;2.418;2022-07-29T09:28:15;3.55;;;0.80;;
62353;SDS011;48391;49.184;2.418;2022-07-29T09:30:55;2.88;;;0.60;;
62353;SDS011;48391;49.184;2.418;2022-07-29T09:33:22;6.72;;;1.05;;
62353;SDS011;48391;49.184;2.418;2022-07-29T09:36:04;1.88;;;0.80;;
62353;SDS011;48391;49.184;2.418;2022-07-29T09:38:30;4.63;;;0.50;;
62353;SDS011;48391;49.184;2.418;2022-07-29T09:40:57;0.82;;;0.55;;
62353;SDS011;48391;49.184;2.418;2022-07-29T09:43:23;1.80;;;0.50;;
62353;SDS011;48391;49.184;2.418;2022-07-29T09:45:49;1.85;;;0.47;;
62353;SDS011;48391;49.184;2.418;2022-07-29T09:48:22;2.72;;;0.70;;
62353;SDS011;48391;49.184;2.418;2022-07-29T09:50:48;0.70;;;0.40;;
62353;SDS011;48391;49.184;2.418;2022-07-29T09:55:56;6.93;;;0.98;;
62353;SDS011;48391;49.184;2.418;2022-07-29T09:58:22;1.48;;;0.68;;
62353;SDS011;48391;49.184;2.418;2022-07-29T10:00:48;15.75;;;2.90;;
62353;SDS011;48391;49.184;2.418;2022-07-29T10:03:15;5.47;;;0.70;;
62353;SDS011;48391;49.184;2.418;2022-07-29T10:05:42;1.67;;;0.68;;
62353;SDS011;48391;49.184;2.418;2022-07-29T10:08:08;4.15;;;0.70;;
62353;SDS011;48391;49.184;2.418;2022-07-29T10:10:39;5.75;;;1.00;;
62353;SDS011;48391;49.184;2.418;2022-07-29T10:13:07;7.00;;;0.82;;
62353;SDS011;48391;49.184;2.418;2022-07-29T10:15:35;1.92;;;0.75;;
62353;SDS011;48391;49.184;2.418;2022-07-29T10:18:03;20.48;;;2.60;;
62353;SDS011;48391;49.184;2.418;2022-07-29T10:20:29;1.13;;;0.63;;
62353;SDS011;48391;49.184;2.418;2022-07-29T10:22:56;2.65;;;0.77;;
62353;SDS011;48391;49.184;2.418;2022-07-29T10:25:22;5.78;;;0.82;;
62353;SDS011;48391;49.184;2.418;2022-07-29T10:27:49;1.40;;;0.38;;
62353;SDS011;48391;49.184;2.418;2022-07-29T10:30:18;3.67;;;0.93;;
62353;SDS011;48391;49.184;2.418;2022-07-29T10:44:34;2.33;;;0.38;;
62353;SDS011;48391;49.184;2.418;2022-07-29T10:46:41;1.35;;;0.77;;
62353;SDS011;48391;49.184;2.418;2022-07-29T10:56:56;3.00;;;0.63;;
62353;SDS011;48391;49.184;2.418;2022-07-29T10:59:36;3.42;;;0.95;;
62353;SDS011;48391;49.184;2.418;2022-07-29T11:02:02;1.45;;;0.73;;
62353;SDS011;48391;49.184;2.418;2022-07-29T11:09:54;4.28;;;1.05;;
62353;SDS011;48391;49.184;2.418;2022-07-29T11:15:03;2.25;;;0.75;;
62353;SDS011;48391;49.184;2.418;2022-07-29T11:18:15;0.88;;;0.40;;
62353;SDS011;48391;49.184;2.418;2022-07-29T11:22:58;5.95;;;0.65;;
62353;SDS011;48391;49.184;2.418;2022-07-29T11:25:24;1.48;;;0.30;;
62353;SDS011;48391;49.184;2.418;2022-07-29T11:27:54;1.20;;;0.47;;
62353;SDS011;48391;49.184;2.418;2022-07-29T11:33:26;3.50;;;0.30;;
62353;SDS011;48391;49.184;2.418;2022-07-29T11:36:08;3.03;;;0.68;;
62353;SDS011;48391;49.184;2.418;2022-07-29T11:38:35;0.68;;;0.25;;
62353;SDS011;48391;49.184;2.418;2022-07-29T11:43:58;4.38;;;0.70;;
62353;SDS011;48391;49.184;2.418;2022-07-29T11:46:47;1.33;;;0.40;;
62353;SDS011;48391;49.184;2.418;2022-07-29T11:49:12;1.08;;;0.60;;
62353;SDS011;48391;49.184;2.418;2022-07-29T11:51:38;5.80;;;0.65;;
62353;SDS011;48391;49.184;2.418;2022-07-29T11:54:04;2.30;;;0.30;;
62353;SDS011;48391;49.184;2.418;2022-07-29T11:56:31;0.68;;;0.30;;
62353;SDS011;48391;49.184;2.418;2022-07-29T11:59:07;1.98;;;0.40;;
62353;SDS011;48391;49.184;2.418;2022-07-29T12:01:36;1.40;;;0.60;;
62353;SDS011;48391;49.184;2.418;2022-07-29T12:04:03;1.58;;;0.50;;
62353;SDS011;48391;49.184;2.418;2022-07-29T12:06:29;0.85;;;0.50;;
62353;SDS011;48391;49.184;2.418;2022-07-29T12:11:31;4.82;;;0.88;;
62353;SDS011;48391;49.184;2.418;2022-07-29T12:13:57;0.88;;;0.60;;
62353;SDS011;48391;49.184;2.418;2022-07-29T12:16:34;3.83;;;0.73;;
62353;SDS011;48391;49.184;2.418;2022-07-29T12:19:00;2.08;;;0.70;;
62353;SDS011;48391;49.184;2.418;2022-07-29T12:21:27;1.08;;;0.40;;
62353;SDS011;48391;49.184;2.418;2022-07-29T12:23:54;2.17;;;0.80;;
62353;SDS011;48391;49.184;2.418;2022-07-29T12:26:20;0.82;;;0.45;;
62353;SDS011;48391;49.184;2.418;2022-07-29T12:28:46;2.47;;;0.55;;
62353;SDS011;48391;49.184;2.418;2022-07-29T12:31:13;1.98;;;0.75;;
62353;SDS011;48391;49.184;2.418;2022-07-29T12:33:39;4.38;;;0.70;;
62353;SDS011;48391;49.184;2.418;2022-07-29T12:36:06;2.78;;;0.38;;
62353;SDS011;48391;49.184;2.418;2022-07-29T12:38:33;1.60;;;0.50;;
62353;SDS011;48391;49.184;2.418;2022-07-29T12:40:59;0.93;;;0.57;;
62353;SDS011;48391;49.184;2.418;2022-07-29T12:43:25;0.93;;;0.40;;
62353;SDS011;48391;49.184;2.418;2022-07-29T12:45:52;4.65;;;0.60;;
62353;SDS011;48391;49.184;2.418;2022-07-29T12:48:40;0.20;;;0.20;;
62353;SDS011;48391;49.184;2.418;2022-07-29T12:51:05;0.73;;;0.40;;
62353;SDS011;48391;49.184;2.418;2022-07-29T12:53:32;3.80;;;0.70;;
62353;SDS011;48391;49.184;2.418;2022-07-29T12:55:59;1.38;;;0.60;;
62353;SDS011;48391;49.184;2.418;2022-07-29T13:01:26;1.15;;;0.40;;
62353;SDS011;48391;49.184;2.418;2022-07-29T13:03:46;0.60;;;0.20;;
62353;SDS011;48391;49.184;2.418;2022-07-29T13:06:35;1.90;;;1.00;;
62353;SDS011;48391;49.184;2.418;2022-07-29T13:11:32;0.52;;;0.40;;
62353;SDS011;48391;49.184;2.418;2022-07-29T13:13:58;0.80;;;0.40;;
62353;SDS011;48391;49.184;2.418;2022-07-29T13:16:24;6.30;;;0.80;;
62353;SDS011;48391;49.184;2.418;2022-07-29T13:19:02;4.30;;;0.60;;
62353;SDS011;48391;49.184;2.418;2022-07-29T13:21:28;2.15;;;0.70;;
62353;SDS011;48391;49.184;2.418;2022-07-29T13:23:54;1.67;;;0.45;;
62353;SDS011;48391;49.184;2.418;2022-07-29T13:26:20;1.25;;;0.38;;
62353;SDS011;48391;49.184;2.418;2022-07-29T13:28:46;0.88;;;0.45;;
62353;SDS011;48391;49.184;2.418;2022-07-29T13:31:12;2.90;;;0.68;;
62353;SDS011;48391;49.184;2.418;2022-07-29T13:33:38;0.68;;;0.50;;
62353;SDS011;48391;49.184;2.418;2022-07-29T13:36:05;1.77;;;0.30;;
62353;SDS011;48391;49.184;2.418;2022-07-29T13:38:31;6.25;;;1.00;;
62353;SDS011;48391;49.184;2.418;2022-07-29T13:40:57;2.15;;;0.30;;
62353;SDS011;48391;49.184;2.418;2022-07-29T13:43:23;1.75;;;0.40;;
62353;SDS011;48391;49.184;2.418;2022-07-29T13:45:49;1.17;;;0.50;;
62353;SDS011;48391;49.184;2.418;2022-07-29T13:48:15;12.13;;;1.55;;
62353;SDS011;48391;49.184;2.418;2022-07-29T13:50:41;0.85;;;0.30;;
62353;SDS011;48391;49.184;2.418;2022-07-29T13:53:07;6.30;;;0.82;;
62353;SDS011;48391;49.184;2.418;2022-07-29T13:55:33;1.90;;;0.45;;
62353;SDS011;48391;49.184;2.418;2022-07-29T13:57:59;5.57;;;0.40;;
62353;SDS011;48391;49.184;2.418;2022-07-29T14:00:25;1.70;;;0.60;;
62353;SDS011;48391;49.184;2.418;2022-07-29T14:02:52;5.10;;;0.85;;
62353;SDS011;48391;49.184;2.418;2022-07-29T14:05:18;1.27;;;0.52;;
62353;SDS011;48391;49.184;2.418;2022-07-29T14:07:44;0.93;;;0.50;;
62353;SDS011;48391;49.184;2.418;2022-07-29T14:10:10;0.80;;;0.80;;
62353;SDS011;48391;49.184;2.418;2022-07-29T14:12:36;3.13;;;0.30;;
62353;SDS011;48391;49.184;2.418;2022-07-29T14:15:02;1.85;;;0.30;;
62353;SDS011;48391;49.184;2.418;2022-07-29T14:17:28;0.28;;;0.28;;
62353;SDS011;48391;49.184;2.418;2022-07-29T14:19:54;4.10;;;0.57;;
62353;SDS011;48391;49.184;2.418;2022-07-29T14:22:20;0.50;;;0.32;;
62353;SDS011;48391;49.184;2.418;2022-07-29T14:24:46;1.05;;;0.47;;
62353;SDS011;48391;49.184;2.418;2022-07-29T14:27:12;0.68;;;0.13;;
62353;SDS011;48391;49.184;2.418;2022-07-29T14:29:38;1.90;;;0.90;;
62353;SDS011;48391;49.184;2.418;2022-07-29T14:32:05;0.60;;;0.30;;
62353;SDS011;48391;49.184;2.418;2022-07-29T14:34:31;0.95;;;0.50;;
62353;SDS011;48391;49.184;2.418;2022-07-29T14:36:58;0.60;;;0.35;;
62353;SDS011;48391;49.184;2.418;2022-07-29T14:39:24;1.58;;;0.70;;
62353;SDS011;48391;49.184;2.418;2022-07-29T14:41:50;2.15;;;0.50;;
62353;SDS011;48391;49.184;2.418;2022-07-29T14:44:16;1.45;;;0.57;;
62353;SDS011;48391;49.184;2.418;2022-07-29T14:46:43;2.10;;;0.80;;
62353;SDS011;48391;49.184;2.418;2022-07-29T14:49:09;3.65;;;0.63;;
62353;SDS011;48391;49.184;2.418;2022-07-29T14:51:35;0.73;;;0.32;;
62353;SDS011;48391;49.184;2.418;2022-07-29T14:54:01;2.80;;;0.65;;
62353;SDS011;48391;49.184;2.418;2022-07-29T14:56:27;1.42;;;0.40;;
62353;SDS011;48391;49.184;2.418;2022-07-29T14:58:55;4.60;;;0.38;;
62353;SDS011;48391;49.184;2.418;2022-07-29T15:01:21;0.52;;;0.20;;
62353;SDS011;48391;49.184;2.418;2022-07-29T15:03:47;1.00;;;0.40;;
62353;SDS011;48391;49.184;2.418;2022-07-29T15:06:13;2.90;;;0.77;;
62353;SDS011;48391;49.184;2.418;2022-07-29T15:08:39;1.48;;;0.47;;
62353;SDS011;48391;49.184;2.418;2022-07-29T15:11:05;1.33;;;0.43;;
62353;SDS011;48391;49.184;2.418;2022-07-29T15:13:31;2.58;;;0.90;;
62353;SDS011;48391;49.184;2.418;2022-07-29T15:15:57;1.63;;;0.50;;
62353;SDS011;48391;49.184;2.418;2022-07-29T15:18:23;2.97;;;0.88;;
62353;SDS011;48391;49.184;2.418;2022-07-29T15:20:49;2.25;;;0.45;;
62353;SDS011;48391;49.184;2.418;2022-07-29T15:23:15;1.25;;;0.52;;
62353;SDS011;48391;49.184;2.418;2022-07-29T15:25:41;0.80;;;0.20;;
62353;SDS011;48391;49.184;2.418;2022-07-29T15:28:07;0.82;;;0.55;;
62353;SDS011;48391;49.184;2.418;2022-07-29T15:30:33;2.65;;;0.32;;
62353;SDS011;48391;49.184;2.418;2022-07-29T15:33:01;2.05;;;0.40;;
62353;SDS011;48391;49.184;2.418;2022-07-29T15:35:28;2.97;;;0.43;;
62353;SDS011;48391;49.184;2.418;2022-07-29T15:37:54;0.68;;;0.40;;
62353;SDS011;48391;49.184;2.418;2022-07-29T15:40:20;3.28;;;0.52;;
62353;SDS011;48391;49.184;2.418;2022-07-29T15:42:46;2.47;;;0.40;;
62353;SDS011;48391;49.184;2.418;2022-07-29T15:45:12;0.60;;;0.60;;
62353;SDS011;48391;49.184;2.418;2022-07-29T15:47:38;0.90;;;0.50;;
62353;SDS011;48391;49.184;2.418;2022-07-29T15:50:04;1.95;;;0.55;;
62353;SDS011;48391;49.184;2.418;2022-07-29T15:52:31;0.80;;;0.50;;
62353;SDS011;48391;49.184;2.418;2022-07-29T15:54:57;2.10;;;0.50;;
62353;SDS011;48391;49.184;2.418;2022-07-29T15:57:24;0.45;;;0.43;;
62353;SDS011;48391;49.184;2.418;2022-07-29T15:59:50;3.08;;;0.22;;
62353;SDS011;48391;49.184;2.418;2022-07-29T16:02:16;5.15;;;0.57;;
62353;SDS011;48391;49.184;2.418;2022-07-29T16:04:42;0.60;;;0.35;;
62353;SDS011;48391;49.184;2.418;2022-07-29T16:07:08;5.55;;;1.15;;
62353;SDS011;48391;49.184;2.418;2022-07-29T16:09:34;9.35;;;1.35;;
62353;SDS011;48391;49.184;2.418;2022-07-29T16:12:00;1.58;;;0.50;;
62353;SDS011;48391;49.184;2.418;2022-07-29T16:14:26;1.70;;;0.77;;
62353;SDS011;48391;49.184;2.418;2022-07-29T16:16:52;1.58;;;0.38;;
62353;SDS011;48391;49.184;2.418;2022-07-29T16:19:18;0.95;;;0.47;;
62353;SDS011;48391;49.184;2.418;2022-07-29T16:21:44;2.03;;;0.60;;
62353;SDS011;48391;49.184;2.418;2022-07-29T16:24:10;2.33;;;0.43;;
62353;SDS011;48391;49.184;2.418;2022-07-29T16:26:36;25.17;;;3.33;;
62353;SDS011;48391;49.184;2.418;2022-07-29T16:29:03;1.83;;;0.38;;
62353;SDS011;48391;49.184;2.418;2022-07-29T16:31:29;1.35;;;0.22;;
62353;SDS011;48391;49.184;2.418;2022-07-29T16:33:55;1.38;;;0.43;;
62353;SDS011;48391;49.184;2.418;2022-07-29T16:36:21;0.45;;;0.35;;
62353;SDS011;48391;49.184;2.418;2022-07-29T16:38:47;1.73;;;0.43;;
62353;SDS011;48391;49.184;2.418;2022-07-29T16:41:13;1.42;;;0.60;;
62353;SDS011;48391;49.184;2.418;2022-07-29T16:43:40;8.18;;;1.35;;
62353;SDS011;48391;49.184;2.418;2022-07-29T16:46:06;2.63;;;0.40;;
62353;SDS011;48391;49.184;2.418;2022-07-29T16:48:33;1.08;;;0.47;;
62353;SDS011;48391;49.184;2.418;2022-07-29T16:50:59;0.63;;;0.40;;
62353;SDS011;48391;49.184;2.418;2022-07-29T16:53:25;1.10;;;0.45;;
62353;SDS011;48391;49.184;2.418;2022-07-29T16:55:51;1.75;;;0.38;;
62353;SDS011;48391;49.184;2.418;2022-07-29T16:58:17;3.35;;;0.30;;
62353;SDS011;48391;49.184;2.418;2022-07-29T17:00:43;0.88;;;0.52;;
62353;SDS011;48391;49.184;2.418;2022-07-29T17:03:09;5.40;;;1.20;;
62353;SDS011;48391;49.184;2.418;2022-07-29T17:05:35;1.67;;;0.57;;
62353;SDS011;48391;49.184;2.418;2022-07-29T17:08:01;3.55;;;0.60;;
62353;SDS011;48391;49.184;2.418;2022-07-29T17:10:27;9.35;;;1.30;;
62353;SDS011;48391;49.184;2.418;2022-07-29T17:12:54;1.02;;;0.40;;
62353;SDS011;48391;49.184;2.418;2022-07-29T17:15:20;1.38;;;0.32;;
62353;SDS011;48391;49.184;2.418;2022-07-29T17:17:46;7.30;;;1.02;;
62353;SDS011;48391;49.184;2.418;2022-07-29T17:20:13;6.30;;;1.48;;
62353;SDS011;48391;49.184;2.418;2022-07-29T17:22:39;1.05;;;0.47;;
62353;SDS011;48391;49.184;2.418;2022-07-29T17:25:06;1.75;;;0.40;;
62353;SDS011;48391;49.184;2.418;2022-07-29T17:27:33;2.30;;;0.57;;
62353;SDS011;48391;49.184;2.418;2022-07-29T17:29:59;1.80;;;0.40;;
62353;SDS011;48391;49.184;2.418;2022-07-29T17:32:25;6.60;;;1.23;;
62353;SDS011;48391;49.184;2.418;2022-07-29T17:34:51;1.17;;;0.50;;
62353;SDS011;48391;49.184;2.418;2022-07-29T17:37:17;3.55;;;0.70;;
62353;SDS011;48391;49.184;2.418;2022-07-29T17:39:44;0.70;;;0.40;;
62353;SDS011;48391;49.184;2.418;2022-07-29T17:42:11;1.42;;;0.25;;
62353;SDS011;48391;49.184;2.418;2022-07-29T17:44:37;2.20;;;1.23;;
62353;SDS011;48391;49.184;2.418;2022-07-29T17:47:04;10.32;;;1.80;;
62353;SDS011;48391;49.184;2.418;2022-07-29T17:49:30;23.17;;;3.63;;
62353;SDS011;48391;49.184;2.418;2022-07-29T17:51:56;3.13;;;1.13;;
62353;SDS011;48391;49.184;2.418;2022-07-29T17:54:22;2.50;;;0.60;;
62353;SDS011;48391;49.184;2.418;2022-07-29T17:56:48;1.83;;;1.10;;
62353;SDS011;48391;49.184;2.418;2022-07-29T17:59:14;4.90;;;0.75;;
62353;SDS011;48391;49.184;2.418;2022-07-29T18:01:40;5.63;;;0.98;;
62353;SDS011;48391;49.184;2.418;2022-07-29T18:04:07;8.90;;;1.33;;
62353;SDS011;48391;49.184;2.418;2022-07-29T18:06:33;1.23;;;0.82;;
62353;SDS011;48391;49.184;2.418;2022-07-29T18:08:59;0.50;;;0.50;;
62353;SDS011;48391;49.184;2.418;2022-07-29T18:11:25;0.95;;;0.70;;
62353;SDS011;48391;49.184;2.418;2022-07-29T18:13:52;1.20;;;0.22;;
62353;SDS011;48391;49.184;2.418;2022-07-29T18:16:18;3.15;;;0.43;;
62353;SDS011;48391;49.184;2.418;2022-07-29T18:18:44;5.90;;;1.60;;
62353;SDS011;48391;49.184;2.418;2022-07-29T18:21:10;8.98;;;1.45;;
62353;SDS011;48391;49.184;2.418;2022-07-29T18:23:36;1.05;;;0.70;;
62353;SDS011;48391;49.184;2.418;2022-07-29T18:26:02;1.92;;;0.52;;
62353;SDS011;48391;49.184;2.418;2022-07-29T18:28:28;13.02;;;1.00;;
62353;SDS011;48391;49.184;2.418;2022-07-29T18:30:56;2.38;;;0.52;;
62353;SDS011;48391;49.184;2.418;2022-07-29T18:33:22;2.88;;;0.80;;
62353;SDS011;48391;49.184;2.418;2022-07-29T18:35:49;0.85;;;0.77;;
62353;SDS011;48391;49.184;2.418;2022-07-29T18:38:15;1.08;;;0.82;;
62353;SDS011;48391;49.184;2.418;2022-07-29T18:40:41;1.48;;;1.40;;
62353;SDS011;48391;49.184;2.418;2022-07-29T18:43:09;2.95;;;2.60;;
62353;SDS011;48391;49.184;2.418;2022-07-29T18:45:35;3.63;;;2.75;;
62353;SDS011;48391;49.184;2.418;2022-07-29T18:48:01;47.97;;;8.73;;
62353;SDS011;48391;49.184;2.418;2022-07-29T18:50:28;3.10;;;2.00;;
62353;SDS011;48391;49.184;2.418;2022-07-29T18:52:54;3.25;;;1.30;;
62353;SDS011;48391;49.184;2.418;2022-07-29T18:55:22;5.65;;;1.27;;
62353;SDS011;48391;49.184;2.418;2022-07-29T18:57:48;1.15;;;0.55;;
62353;SDS011;48391;49.184;2.418;2022-07-29T19:00:14;2.40;;;0.63;;
62353;SDS011;48391;49.184;2.418;2022-07-29T19:02:40;2.03;;;0.50;;
62353;SDS011;48391;49.184;2.418;2022-07-29T19:05:07;1.63;;;0.90;;
62353;SDS011;48391;49.184;2.418;2022-07-29T19:07:34;2.15;;;0.68;;
62353;SDS011;48391;49.184;2.418;2022-07-29T19:10:00;1.70;;;0.85;;
62353;SDS011;48391;49.184;2.418;2022-07-29T19:12:26;2.20;;;0.80;;
62353;SDS011;48391;49.184;2.418;2022-07-29T19:14:53;1.27;;;1.17;;
62353;SDS011;48391;49.184;2.418;2022-07-29T19:17:19;0.40;;;0.40;;
62353;SDS011;48391;49.184;2.418;2022-07-29T19:19:45;1.90;;;0.63;;
62353;SDS011;48391;49.184;2.418;2022-07-29T19:22:11;5.50;;;1.08;;
62353;SDS011;48391;49.184;2.418;2022-07-29T19:24:38;5.90;;;1.50;;
62353;SDS011;48391;49.184;2.418;2022-07-29T19:27:04;4.63;;;1.13;;
62353;SDS011;48391;49.184;2.418;2022-07-29T19:29:30;3.63;;;0.82;;
62353;SDS011;48391;49.184;2.418;2022-07-29T19:31:56;3.03;;;1.17;;
62353;SDS011;48391;49.184;2.418;2022-07-29T19:34:24;0.90;;;0.90;;
62353;SDS011;48391;49.184;2.418;2022-07-29T19:36:51;2.03;;;1.45;;
62353;SDS011;48391;49.184;2.418;2022-07-29T19:39:17;3.25;;;1.65;;
62353;SDS011;48391;49.184;2.418;2022-07-29T19:41:42;3.45;;;0.90;;
62353;SDS011;48391;49.184;2.418;2022-07-29T19:44:08;2.53;;;1.08;;
62353;SDS011;48391;49.184;2.418;2022-07-29T19:46:35;1.85;;;0.80;;
62353;SDS011;48391;49.184;2.418;2022-07-29T19:49:02;1.77;;;1.27;;
62353;SDS011;48391;49.184;2.418;2022-07-29T19:51:30;1.30;;;1.00;;
62353;SDS011;48391;49.184;2.418;2022-07-29T19:53:56;1.38;;;0.70;;
62353;SDS011;48391;49.184;2.418;2022-07-29T19:56:22;1.30;;;0.90;;
62353;SDS011;48391;49.184;2.418;2022-07-29T19:58:53;1.13;;;0.73;;
62353;SDS011;48391;49.184;2.418;2022-07-29T20:01:20;5.63;;;1.20;;
62353;SDS011;48391;49.184;2.418;2022-07-29T20:03:46;3.17;;;0.88;;
62353;SDS011;48391;49.184;2.418;2022-07-29T20:06:12;12.20;;;2.30;;
62353;SDS011;48391;49.184;2.418;2022-07-29T20:08:38;7.20;;;1.67;;
62353;SDS011;48391;49.184;2.418;2022-07-29T20:11:04;1.50;;;1.02;;
62353;SDS011;48391;49.184;2.418;2022-07-29T20:13:30;1.27;;;1.00;;
62353;SDS011;48391;49.184;2.418;2022-07-29T20:15:57;2.40;;;0.70;;
62353;SDS011;48391;49.184;2.418;2022-07-29T20:18:24;1.63;;;0.82;;
62353;SDS011;48391;49.184;2.418;2022-07-29T20:20:50;2.83;;;1.02;;
62353;SDS011;48391;49.184;2.418;2022-07-29T20:23:17;1.45;;;1.35;;
62353;SDS011;48391;49.184;2.418;2022-07-29T20:25:46;2.05;;;1.20;;
62353;SDS011;48391;49.184;2.418;2022-07-29T20:28:12;1.75;;;1.58;;
62353;SDS011;48391;49.184;2.418;2022-07-29T20:30:38;2.08;;;1.55;;
62353;SDS011;48391;49.184;2.418;2022-07-29T20:33:04;2.50;;;1.25;;
62353;SDS011;48391;49.184;2.418;2022-07-29T20:35:30;11.80;;;2.28;;
62353;SDS011;48391;49.184;2.418;2022-07-29T20:37:56;18.50;;;3.53;;
62353;SDS011;48391;49.184;2.418;2022-07-29T20:40:24;12.15;;;2.25;;
62353;SDS011;48391;49.184;2.418;2022-07-29T20:42:51;15.93;;;2.42;;
62353;SDS011;48391;49.184;2.418;2022-07-29T20:45:17;4.95;;;1.70;;
62353;SDS011;48391;49.184;2.418;2022-07-29T20:47:44;4.07;;;1.45;;
62353;SDS011;48391;49.184;2.418;2022-07-29T20:50:10;4.47;;;1.45;;
62353;SDS011;48391;49.184;2.418;2022-07-29T20:52:36;1.83;;;1.15;;
62353;SDS011;48391;49.184;2.418;2022-07-29T20:55:04;1.58;;;1.48;;
62353;SDS011;48391;49.184;2.418;2022-07-29T20:57:30;1.60;;;1.45;;
62353;SDS011;48391;49.184;2.418;2022-07-29T20:59:57;1.50;;;0.95;;
62353;SDS011;48391;49.184;2.418;2022-07-29T21:02:23;2.22;;;1.13;;
62353;SDS011;48391;49.184;2.418;2022-07-29T21:04:49;1.98;;;0.90;;
62353;SDS011;48391;49.184;2.418;2022-07-29T21:07:15;1.85;;;1.05;;
62353;SDS011;48391;49.184;2.418;2022-07-29T21:09:41;2.47;;;1.08;;
62353;SDS011;48391;49.184;2.418;2022-07-29T21:12:07;2.97;;;1.50;;
62353;SDS011;48391;49.184;2.418;2022-07-29T21:14:35;1.80;;;1.13;;
62353;SDS011;48391;49.184;2.418;2022-07-29T21:17:01;3.35;;;1.40;;
62353;SDS011;48391;49.184;2.418;2022-07-29T21:19:29;1.40;;;1.15;;
62353;SDS011;48391;49.184;2.418;2022-07-29T21:21:56;3.45;;;1.65;;
62353;SDS011;48391;49.184;2.418;2022-07-29T21:24:21;4.90;;;1.75;;
62353;SDS011;48391;49.184;2.418;2022-07-29T21:26:47;2.47;;;1.83;;
62353;SDS011;48391;49.184;2.418;2022-07-29T21:29:13;2.60;;;1.88;;
62353;SDS011;48391;49.184;2.418;2022-07-29T21:31:39;5.53;;;2.33;;
62353;SDS011;48391;49.184;2.418;2022-07-29T21:34:08;4.15;;;1.92;;
62353;SDS011;48391;49.184;2.418;2022-07-29T21:36:34;2.35;;;1.40;;
62353;SDS011;48391;49.184;2.418;2022-07-29T21:39:00;3.35;;;1.40;;
62353;SDS011;48391;49.184;2.418;2022-07-29T21:41:31;4.35;;;1.70;;
62353;SDS011;48391;49.184;2.418;2022-07-29T21:43:57;1.88;;;1.33;;
62353;SDS011;48391;49.184;2.418;2022-07-29T21:46:23;2.17;;;1.00;;
62353;SDS011;48391;49.184;2.418;2022-07-29T21:48:49;2.55;;;1.27;;
62353;SDS011;48391;49.184;2.418;2022-07-29T21:51:15;1.88;;;1.35;;
62353;SDS011;48391;49.184;2.418;2022-07-29T21:53:41;3.00;;;1.45;;
62353;SDS011;48391;49.184;2.418;2022-07-29T21:56:07;5.70;;;1.25;;
62353;SDS011;48391;49.184;2.418;2022-07-29T21:58:33;2.58;;;1.42;;
62353;SDS011;48391;49.184;2.418;2022-07-29T22:00:59;2.08;;;1.15;;